This is the latest recevied weather packets stored in our database for station/object AI5YA-13. If no packets are shown the sender has not sent any weather packets the latest 10 day(s).
| Time | Temp. | Humidity | Pressure | Rain* | Wind** | Luminosity | Snow |
|---|---|---|---|---|---|---|---|
| 1777251207 | 32.22° C | 13% | 1004.2 hPa | 0 mm | - | 30 W/m² | - |
| 1777250904 | 32.22° C | 13% | 1004.3 hPa | 0 mm | - | 27 W/m² | - |
| 1777250600 | 32.22° C | 13% | 1004.5 hPa | 0 mm | - | 35 W/m² | - |
| 1777250296 | 32.78° C | 13% | 1004.4 hPa | 0 mm | - | 31 W/m² | - |
| 1777249992 | 32.78° C | 13% | 1004.2 hPa | 0 mm | - | 37 W/m² | - |
| 1777249689 | 32.78° C | 12% | 1004.2 hPa | 0 mm | - | 44 W/m² | - |
| 1777249384 | 32.78° C | 12% | 1004.3 hPa | 0 mm | - | 71 W/m² | - |
| 1777249082 | 32.78° C | 12% | 1004.3 hPa | 0 mm | - | 58 W/m² | - |
| 1777248778 | 32.78° C | 12% | 1004.4 hPa | 0 mm | - | 64 W/m² | - |
| 1777248475 | 32.78° C | 12% | 1004.4 hPa | 0 mm | - | 57 W/m² | - |
| 1777248171 | 32.78° C | 12% | 1004.3 hPa | 0 mm | - | 58 W/m² | - |
| 1777247870 | 33.89° C | 12% | 1004.2 hPa | 0 mm | - | 60 W/m² | - |
| 1777247566 | 33.89° C | 12% | 1004.1 hPa | 0 mm | - | 200 W/m² | - |
| 1777247265 | 33.33° C | 12% | 1004.3 hPa | 0 mm | - | 100 W/m² | - |
| 1777246963 | 34.44° C | 12% | 1004.3 hPa | 0 mm | - | 69 W/m² | - |
| 1777246658 | 33.89° C | 12% | 1004.5 hPa | 0 mm | - | 241 W/m² | - |
| 1777246355 | 34.44° C | 12% | 1004.3 hPa | 0 mm | - | 262 W/m² | - |
| 1777246052 | 34.44° C | 12% | 1004.3 hPa | 0 mm | - | 280 W/m² | - |
| 1777245751 | 33.33° C | 13% | 1004.5 hPa | 0 mm | - | 293 W/m² | - |
| 1777244535 | 33.89° C | 12% | 1004.6 hPa | 0 mm | - | 393 W/m² | - |
| 1777244231 | 33.89° C | 12% | 1004.6 hPa | 0 mm | - | 393 W/m² | - |
* Rain latest hour (hover to see other rain measurements)
** Current wind speed in m/s (hover to see current wind gust speed)